createdAt,value
2018-11-01T00:01:02.044Z,4.40
2018-11-01T00:03:30.112Z,4.40
2018-11-01T00:05:58.148Z,4.20
2018-11-01T00:08:26.375Z,4.30
2018-11-01T00:10:54.535Z,4.45
2018-11-01T00:13:22.560Z,4.90
2018-11-01T00:15:50.580Z,4.50
2018-11-01T00:18:18.608Z,4.35
2018-11-01T00:20:46.635Z,4.30
2018-11-01T00:23:14.653Z,4.35
2018-11-01T00:25:42.668Z,4.30
2018-11-01T00:28:10.708Z,4.40
2018-11-01T00:30:38.736Z,4.60
2018-11-01T00:33:06.748Z,4.87
2018-11-01T00:35:34.752Z,5.12
2018-11-01T00:38:02.801Z,4.85
2018-11-01T00:40:30.819Z,5.00
2018-11-01T00:42:58.828Z,4.90
2018-11-01T00:45:26.860Z,5.28
2018-11-01T00:47:54.883Z,4.72
2018-11-01T00:50:22.936Z,5.15
2018-11-01T00:52:50.976Z,4.75
2018-11-01T00:55:18.980Z,5.55
2018-11-01T00:57:47.009Z,5.50
2018-11-01T01:00:15.845Z,4.60
2018-11-01T01:02:43.888Z,5.00
2018-11-01T01:05:12.182Z,4.60
2018-11-01T01:07:40.216Z,4.90
2018-11-01T01:10:10.308Z,5.22
2018-11-01T01:12:38.656Z,4.93
2018-11-01T01:15:07.348Z,4.90
2018-11-01T01:17:35.384Z,4.45
2018-11-01T01:20:04.325Z,4.55
2018-11-01T01:22:32.356Z,4.70
2018-11-01T01:25:00.369Z,4.90
2018-11-01T01:27:28.393Z,5.05
2018-11-01T01:29:56.421Z,5.87
2018-11-01T01:32:24.439Z,5.10
2018-11-01T01:34:52.452Z,5.10
2018-11-01T01:37:20.481Z,4.80
2018-11-01T01:39:48.505Z,4.90
2018-11-01T01:42:16.540Z,4.70
2018-11-01T01:44:44.560Z,4.50
2018-11-01T01:47:12.576Z,5.00
2018-11-01T01:49:40.605Z,4.40
2018-11-01T01:52:08.620Z,4.80
2018-11-01T01:54:36.655Z,5.00
2018-11-01T01:57:04.723Z,4.72
2018-11-01T01:59:32.729Z,4.85
2018-11-01T02:02:00.748Z,4.70
2018-11-01T02:04:28.764Z,4.80
2018-11-01T02:06:56.772Z,5.00
2018-11-01T02:09:24.804Z,5.10
2018-11-01T02:11:53.024Z,4.40
2018-11-01T02:14:20.852Z,4.30
2018-11-01T02:16:48.865Z,4.55
2018-11-01T02:19:16.876Z,4.08
2018-11-01T02:21:44.919Z,4.50
2018-11-01T02:24:12.944Z,3.70
2018-11-01T02:26:40.957Z,4.15
2018-11-01T02:29:08.980Z,4.05
2018-11-01T02:31:36.995Z,4.50
2018-11-01T02:34:05.245Z,4.45
2018-11-01T02:36:33.253Z,4.60
2018-11-01T02:39:01.287Z,4.40
2018-11-01T02:41:29.296Z,4.50
2018-11-01T02:43:57.317Z,4.37
2018-11-01T02:46:25.357Z,4.10
2018-11-01T02:48:53.378Z,4.53
2018-11-01T02:51:21.388Z,4.25
2018-11-01T02:53:49.396Z,4.15
2018-11-01T02:56:17.405Z,4.20
2018-11-01T02:58:45.424Z,4.00
2018-11-01T03:01:18.068Z,4.20
2018-11-01T03:03:47.257Z,4.30
2018-11-01T03:06:15.440Z,4.28
2018-11-01T03:08:43.488Z,4.25
2018-11-01T03:11:11.681Z,4.00
2018-11-01T03:13:39.713Z,4.07
2018-11-01T03:16:08.042Z,4.50
2018-11-01T03:18:36.224Z,4.55
2018-11-01T03:21:04.246Z,4.40
2018-11-01T03:23:32.540Z,4.60
2018-11-01T03:26:00.572Z,4.35
2018-11-01T03:28:28.584Z,4.40
2018-11-01T03:30:56.766Z,4.03
2018-11-01T03:33:24.780Z,4.95
2018-11-01T03:35:52.774Z,5.00
2018-11-01T03:38:20.850Z,4.58
2018-11-01T03:40:48.815Z,4.70
2018-11-01T03:43:16.820Z,4.15
2018-11-01T03:45:44.882Z,4.65
2018-11-01T03:48:12.846Z,4.72
2018-11-01T03:50:40.865Z,5.00
2018-11-01T03:53:08.904Z,5.20
2018-11-01T03:55:36.895Z,5.00
2018-11-01T03:58:05.184Z,5.00
2018-11-01T04:00:33.188Z,4.47
2018-11-01T04:03:01.212Z,5.40
2018-11-01T04:05:29.222Z,5.00
2018-11-01T04:07:57.233Z,5.72
2018-11-01T04:10:25.244Z,5.30
2018-11-01T04:12:53.260Z,5.30
2018-11-01T04:15:21.416Z,5.00
2018-11-01T04:17:49.340Z,5.00
2018-11-01T04:20:17.365Z,4.92
2018-11-01T04:22:45.418Z,5.20
2018-11-01T04:25:13.822Z,4.90
2018-11-01T04:27:42.182Z,5.55
2018-11-01T04:30:10.364Z,5.30
2018-11-01T04:32:38.378Z,5.40
2018-11-01T04:35:06.809Z,4.70
2018-11-01T04:37:34.805Z,5.10
2018-11-01T04:40:02.853Z,5.75
2018-11-01T04:42:30.881Z,5.30
2018-11-01T04:44:58.985Z,5.40
2018-11-01T04:47:27.025Z,5.95
2018-11-01T04:49:54.960Z,5.95
2018-11-01T04:52:22.984Z,5.85
2018-11-01T04:54:51.003Z,5.63
2018-11-01T04:57:19.016Z,5.95
2018-11-01T04:59:47.036Z,5.67
2018-11-01T05:02:15.049Z,6.28
2018-11-01T05:04:43.077Z,6.00
2018-11-01T05:07:11.075Z,6.30
2018-11-01T05:09:39.088Z,6.80
2018-11-01T05:12:07.112Z,6.10
2018-11-01T05:14:35.137Z,5.70
2018-11-01T05:17:03.148Z,5.35
2018-11-01T05:19:31.156Z,6.10
2018-11-01T05:21:59.159Z,6.00
2018-11-01T05:24:27.193Z,6.10
2018-11-01T05:26:55.210Z,6.50
2018-11-01T05:29:23.231Z,6.08
2018-11-01T05:31:51.304Z,7.00
2018-11-01T05:34:19.340Z,6.00
2018-11-01T05:36:47.378Z,6.17
2018-11-01T05:39:15.426Z,6.50
2018-11-01T05:41:43.459Z,6.87
2018-11-01T05:44:11.476Z,7.37
2018-11-01T05:46:39.513Z,6.70
2018-11-01T05:49:07.524Z,7.15
2018-11-01T05:51:35.548Z,6.85
2018-11-01T05:54:03.660Z,8.43
2018-11-01T05:56:35.162Z,7.60
2018-11-01T05:59:06.440Z,7.72
2018-11-01T06:01:41.070Z,7.47
2018-11-01T06:04:09.144Z,8.03
2018-11-01T06:06:44.654Z,7.87
2018-11-01T06:09:24.702Z,8.70
2018-11-01T06:11:53.945Z,7.95
2018-11-01T06:14:21.987Z,8.20
2018-11-01T06:16:50.169Z,7.70
2018-11-01T06:19:18.185Z,7.60
2018-11-01T06:21:46.199Z,8.73
2018-11-01T06:24:15.103Z,7.62
2018-11-01T06:26:43.456Z,8.40
2018-11-01T06:29:11.471Z,8.00
2018-11-01T06:31:39.514Z,8.80
2018-11-01T06:34:10.155Z,8.13
2018-11-01T06:36:38.184Z,8.40
2018-11-01T06:39:07.500Z,8.27
2018-11-01T06:41:35.557Z,7.95
2018-11-01T06:44:03.545Z,7.53
2018-11-01T06:46:31.724Z,7.65
2018-11-01T06:48:59.740Z,8.10
2018-11-01T06:51:27.808Z,8.10
2018-11-01T06:53:55.939Z,7.47
2018-11-01T06:56:24.115Z,7.20
2018-11-01T06:58:52.210Z,6.62
2018-11-01T07:01:20.145Z,8.10
2018-11-01T07:03:48.141Z,7.60
2018-11-01T07:06:16.161Z,7.33
2018-11-01T07:08:44.184Z,7.80
2018-11-01T07:11:12.188Z,7.10
2018-11-01T07:13:40.208Z,7.40
2018-11-01T07:16:08.244Z,8.05
2018-11-01T07:18:36.263Z,8.45
2018-11-01T07:21:04.321Z,7.78
2018-11-01T07:23:32.337Z,7.57
2018-11-01T07:26:00.479Z,7.87
2018-11-01T07:28:28.389Z,8.40
2018-11-01T07:30:56.385Z,9.70
2018-11-01T07:33:24.428Z,9.33
2018-11-01T07:35:52.436Z,8.30
2018-11-01T07:38:20.463Z,9.23
2018-11-01T07:40:48.491Z,9.40
2018-11-01T07:43:16.527Z,9.25
2018-11-01T07:45:44.552Z,9.33
2018-11-01T07:48:12.583Z,8.88
2018-11-01T07:50:40.597Z,9.20
2018-11-01T07:53:08.627Z,9.48
2018-11-01T07:55:36.641Z,8.40
2018-11-01T07:58:04.991Z,9.30
2018-11-01T08:00:33.022Z,8.60
2018-11-01T08:03:01.072Z,8.90
2018-11-01T08:05:29.073Z,9.15
2018-11-01T08:07:57.104Z,8.83
2018-11-01T08:10:25.224Z,9.40
2018-11-01T08:12:53.260Z,8.30
2018-11-01T08:15:21.952Z,9.00
2018-11-01T08:17:50.001Z,8.38
2018-11-01T08:20:18.514Z,9.95
2018-11-01T08:22:46.263Z,8.00
2018-11-01T08:25:14.752Z,9.05
2018-11-01T08:27:43.135Z,8.45
2018-11-01T08:30:13.268Z,9.30
2018-11-01T08:32:41.293Z,10.00
2018-11-01T08:35:10.537Z,10.23
2018-11-01T08:37:38.900Z,9.65
2018-11-01T08:40:07.739Z,9.55
2018-11-01T08:42:35.763Z,10.15
2018-11-01T08:45:03.918Z,9.40
2018-11-01T08:47:31.964Z,10.15
2018-11-01T08:50:00.042Z,10.33
2018-11-01T08:52:28.029Z,9.90
2018-11-01T08:54:56.123Z,10.93
2018-11-01T08:57:24.203Z,11.45
2018-11-01T08:59:52.244Z,11.30
2018-11-01T09:02:20.264Z,11.50
2018-11-01T09:04:48.348Z,10.88
2018-11-01T09:07:16.404Z,10.50
2018-11-01T09:09:44.532Z,10.60
2018-11-01T09:12:12.925Z,11.43
2018-11-01T09:14:41.089Z,10.13
2018-11-01T09:17:09.061Z,10.70
2018-11-01T09:19:37.092Z,11.22
2018-11-01T09:22:05.295Z,12.85
2018-11-01T09:24:33.339Z,10.88
2018-11-01T09:27:01.425Z,12.50
2018-11-01T09:29:29.401Z,12.55
2018-11-01T09:31:57.436Z,12.45
2018-11-01T09:34:25.500Z,11.90
2018-11-01T09:36:53.548Z,11.90
2018-11-01T09:39:21.604Z,14.68
2018-11-01T09:41:49.635Z,12.43
2018-11-01T09:44:17.681Z,12.88
2018-11-01T09:46:46.028Z,11.95
2018-11-01T09:49:13.773Z,12.00
2018-11-01T09:51:41.799Z,12.13
2018-11-01T09:54:09.873Z,12.50
2018-11-01T09:56:38.018Z,13.95
2018-11-01T09:59:05.943Z,11.97
2018-11-01T10:01:33.967Z,13.05
2018-11-01T10:04:01.996Z,13.65
2018-11-01T10:06:30.041Z,12.90
2018-11-01T10:08:58.068Z,12.20
2018-11-01T10:11:26.107Z,13.60
2018-11-01T10:13:54.127Z,13.03
2018-11-01T10:16:22.302Z,12.90
2018-11-01T10:18:50.209Z,12.68
2018-11-01T10:21:18.279Z,11.70
2018-11-01T10:23:46.276Z,12.82
2018-11-01T10:26:14.312Z,12.90
2018-11-01T10:28:42.384Z,12.30
2018-11-01T10:31:10.433Z,11.93
2018-11-01T10:33:38.492Z,11.90
2018-11-01T10:36:06.507Z,12.15
2018-11-01T10:38:34.529Z,12.50
2018-11-01T10:41:02.578Z,12.50
2018-11-01T10:43:30.624Z,12.10
2018-11-01T10:45:58.664Z,11.50
2018-11-01T10:48:26.702Z,11.50
2018-11-01T10:50:54.726Z,12.37
2018-11-01T10:53:22.765Z,12.20
2018-11-01T10:55:50.804Z,12.10
2018-11-01T10:58:18.840Z,12.30
2018-11-01T11:00:52.561Z,11.90
2018-11-01T11:03:20.508Z,12.30
2018-11-01T11:05:48.555Z,13.13
2018-11-01T11:08:16.588Z,12.40
2018-11-01T11:10:44.629Z,14.07
2018-11-01T11:13:12.696Z,12.77
2018-11-01T11:15:40.721Z,13.80
2018-11-01T11:18:08.777Z,13.05
2018-11-01T11:20:37.030Z,15.53
2018-11-01T11:23:04.839Z,13.40
2018-11-01T11:25:32.863Z,13.10
2018-11-01T11:28:00.895Z,13.15
2018-11-01T11:30:28.976Z,14.83
2018-11-01T11:32:56.944Z,12.60
2018-11-01T11:35:25.062Z,12.53
2018-11-01T11:37:53.025Z,12.65
2018-11-01T11:40:21.068Z,12.60
2018-11-01T11:42:49.112Z,13.78
2018-11-01T11:45:17.162Z,15.20
2018-11-01T11:47:45.183Z,12.55
2018-11-01T11:50:13.956Z,13.20
2018-11-01T11:52:43.259Z,12.98
2018-11-01T11:55:11.538Z,12.98
2018-11-01T11:57:39.806Z,13.08
2018-11-01T12:00:10.850Z,12.63
2018-11-01T12:02:38.860Z,13.93
2018-11-01T12:05:07.296Z,12.43
2018-11-01T12:07:35.312Z,13.20
2018-11-01T12:10:03.342Z,13.72
2018-11-01T12:12:31.355Z,13.30
2018-11-01T12:14:59.394Z,14.40
2018-11-01T12:17:27.418Z,12.95
2018-11-01T12:19:55.444Z,14.10
2018-11-01T12:22:23.634Z,15.30
2018-11-01T12:24:51.624Z,13.30
2018-11-01T12:27:19.650Z,13.13
2018-11-01T12:29:47.681Z,13.45
2018-11-01T12:32:15.723Z,13.30
2018-11-01T12:34:43.755Z,13.00
2018-11-01T12:37:11.772Z,13.03
2018-11-01T12:39:39.779Z,13.25
2018-11-01T12:42:07.847Z,11.85
2018-11-01T12:44:35.908Z,12.63
2018-11-01T12:47:03.929Z,14.45
2018-11-01T12:49:31.986Z,13.80
2018-11-01T12:51:59.996Z,13.50
2018-11-01T12:54:28.024Z,13.80
2018-11-01T12:56:56.036Z,14.15
2018-11-01T12:59:24.087Z,12.55
2018-11-01T13:01:52.120Z,12.60
2018-11-01T13:04:20.145Z,11.65
2018-11-01T13:06:48.236Z,12.90
2018-11-01T13:09:16.272Z,12.77
2018-11-01T13:11:45.080Z,13.50
2018-11-01T13:14:13.112Z,12.35
2018-11-01T13:16:41.180Z,13.30
2018-11-01T13:19:09.204Z,13.67
2018-11-01T13:21:37.216Z,13.40
2018-11-01T13:24:05.484Z,13.05
2018-11-01T13:26:33.509Z,12.20
2018-11-01T13:29:01.526Z,11.80
2018-11-01T13:31:29.548Z,13.00
2018-11-01T13:33:57.568Z,13.03
2018-11-01T13:36:25.595Z,11.95
2018-11-01T13:38:53.644Z,11.90
2018-11-01T13:41:21.759Z,12.05
2018-11-01T13:43:49.723Z,12.60
2018-11-01T13:46:17.849Z,11.43
2018-11-01T13:48:45.856Z,12.30
2018-11-01T13:51:13.884Z,12.60
2018-11-01T13:53:41.994Z,12.00
2018-11-01T13:56:10.004Z,12.23
2018-11-01T13:58:38.047Z,11.63
2018-11-01T14:01:06.307Z,12.43
2018-11-01T14:03:34.333Z,12.23
2018-11-01T14:06:02.425Z,11.73
2018-11-01T14:08:30.402Z,11.55
2018-11-01T14:10:58.423Z,11.60
2018-11-01T14:13:26.629Z,12.28
2018-11-01T14:15:54.504Z,12.10
2018-11-01T14:18:22.537Z,11.90
2018-11-01T14:20:50.580Z,11.68
2018-11-01T14:23:18.624Z,12.18
2018-11-01T14:25:46.642Z,11.90
2018-11-01T14:28:14.701Z,11.45
2018-11-01T14:30:42.736Z,11.78
2018-11-01T14:33:10.756Z,11.60
2018-11-01T14:35:38.804Z,12.15
2018-11-01T14:38:06.850Z,11.30
2018-11-01T14:40:34.877Z,13.05
2018-11-01T14:43:02.938Z,11.43
2018-11-01T14:45:30.976Z,19.60
2018-11-01T14:47:58.996Z,13.18
2018-11-01T14:50:27.029Z,12.50
2018-11-01T14:52:55.892Z,13.27
2018-11-01T14:55:24.095Z,14.18
2018-11-01T14:57:52.591Z,15.05
2018-11-01T15:00:19.226Z,13.08
2018-11-01T15:02:47.284Z,12.88
2018-11-01T15:05:15.300Z,13.70
2018-11-01T15:07:43.312Z,14.00
2018-11-01T15:10:13.016Z,13.58
2018-11-01T15:12:41.296Z,13.50
2018-11-01T15:15:09.665Z,13.60
2018-11-01T15:17:39.284Z,14.38
2018-11-01T15:20:07.768Z,14.18
2018-11-01T15:22:35.936Z,15.53
2018-11-01T15:25:04.245Z,14.07
2018-11-01T15:27:32.284Z,14.18
2018-11-01T15:30:00.375Z,14.73
2018-11-01T15:32:29.331Z,15.78
2018-11-01T15:34:58.133Z,14.20
2018-11-01T15:37:26.182Z,14.90
2018-11-01T15:39:54.793Z,16.27
2018-11-01T15:42:22.812Z,15.73
2018-11-01T15:44:51.020Z,14.60
2018-11-01T15:47:19.061Z,14.90
2018-11-01T15:49:47.072Z,15.10
2018-11-01T15:52:15.132Z,15.70
2018-11-01T15:54:43.156Z,15.07
2018-11-01T15:57:11.172Z,14.90
2018-11-01T15:59:39.307Z,18.48
2018-11-01T16:02:07.246Z,16.90
2018-11-01T16:04:35.260Z,15.60
2018-11-01T16:07:03.315Z,15.20
2018-11-01T16:09:31.384Z,15.10
2018-11-01T16:11:59.419Z,14.98
2018-11-01T16:14:27.458Z,15.13
2018-11-01T16:16:55.485Z,15.43
2018-11-01T16:19:23.610Z,15.72
2018-11-01T16:21:51.542Z,15.55
2018-11-01T16:24:19.569Z,16.23
2018-11-01T16:26:47.679Z,15.90
2018-11-01T16:29:15.663Z,17.10
2018-11-01T16:31:43.684Z,17.37
2018-11-01T16:34:11.720Z,17.17
2018-11-01T16:36:39.909Z,17.13
2018-11-01T16:39:12.165Z,15.98
2018-11-01T16:41:40.709Z,16.75
2018-11-01T16:44:09.325Z,18.03
2018-11-01T16:46:37.368Z,16.52
2018-11-01T16:49:06.312Z,17.27
2018-11-01T16:51:34.410Z,18.00
2018-11-01T16:54:02.412Z,17.90
2018-11-01T16:56:30.449Z,24.70
2018-11-01T16:58:58.521Z,17.30
2018-11-01T17:01:26.536Z,17.90
2018-11-01T17:03:54.577Z,17.90
2018-11-01T17:06:22.621Z,19.23
2018-11-01T17:08:50.809Z,19.90
2018-11-01T17:11:18.848Z,20.77
2018-11-01T17:13:46.880Z,18.82
2018-11-01T17:16:14.889Z,20.27
2018-11-01T17:18:43.120Z,19.35
2018-11-01T17:21:11.135Z,18.95
2018-11-01T17:23:39.393Z,20.85
2018-11-01T17:26:07.422Z,21.33
2018-11-01T17:28:35.469Z,20.77
2018-11-01T17:31:03.533Z,19.45
2018-11-01T17:33:31.548Z,20.48
2018-11-01T17:35:59.605Z,20.40
2018-11-01T17:38:27.625Z,21.62
2018-11-01T17:40:55.661Z,21.82
2018-11-01T17:43:23.780Z,22.40
2018-11-01T17:45:51.770Z,21.63
2018-11-01T17:48:19.828Z,22.87
2018-11-01T17:50:47.885Z,20.70
2018-11-01T17:53:15.916Z,21.07
2018-11-01T17:55:44.005Z,21.90
2018-11-01T17:58:12.022Z,21.90
2018-11-01T18:00:40.060Z,24.25
2018-11-01T18:03:14.509Z,21.30
2018-11-01T18:05:45.722Z,21.07
2018-11-01T18:08:13.818Z,21.23
2018-11-01T18:10:41.812Z,21.30
2018-11-01T18:13:09.900Z,21.17
2018-11-01T18:15:37.893Z,19.87
2018-11-01T18:18:05.931Z,19.15
2018-11-01T18:20:33.981Z,21.10
2018-11-01T18:23:02.045Z,20.50
2018-11-01T18:25:30.122Z,19.75
2018-11-01T18:27:58.107Z,20.80
2018-11-01T18:30:26.164Z,20.88
2018-11-01T18:32:54.419Z,21.77
2018-11-01T18:35:22.266Z,20.40
2018-11-01T18:37:50.293Z,21.77
2018-11-01T18:40:18.840Z,20.95
2018-11-01T18:42:46.899Z,21.50
2018-11-01T18:45:15.545Z,20.95
2018-11-01T18:47:44.139Z,21.27
2018-11-01T18:50:13.624Z,21.30
2018-11-01T18:52:41.806Z,21.07
2018-11-01T18:55:11.102Z,22.20
2018-11-01T18:57:39.283Z,21.70
2018-11-01T19:00:09.813Z,21.97
2018-11-01T19:02:37.931Z,23.12
2018-11-01T19:05:06.332Z,22.37
2018-11-01T19:07:34.380Z,22.75
2018-11-01T19:10:02.452Z,22.98
2018-11-01T19:12:30.530Z,22.75
2018-11-01T19:14:58.557Z,22.45
2018-11-01T19:17:26.612Z,23.10
2018-11-01T19:19:54.661Z,23.33
2018-11-01T19:22:22.692Z,23.65
2018-11-01T19:24:50.717Z,23.60
2018-11-01T19:27:19.032Z,24.83
2018-11-01T19:29:46.810Z,25.85
2018-11-01T19:32:14.832Z,24.57
2018-11-01T19:34:43.021Z,25.02
2018-11-01T19:37:11.176Z,23.67
2018-11-01T19:39:39.216Z,23.12
2018-11-01T19:42:07.416Z,24.10
2018-11-01T19:44:35.575Z,25.43
2018-11-01T19:47:03.591Z,24.37
2018-11-01T19:49:31.651Z,22.32
2018-11-01T19:51:59.640Z,22.70
2018-11-01T19:54:27.716Z,22.77
2018-11-01T19:56:55.739Z,22.73
2018-11-01T19:59:23.748Z,21.05
2018-11-01T20:01:51.792Z,21.02
2018-11-01T20:04:19.851Z,21.20
2018-11-01T20:06:48.039Z,19.90
2018-11-01T20:09:16.056Z,19.40
2018-11-01T20:11:44.088Z,22.50
2018-11-01T20:14:12.121Z,26.02
2018-11-01T20:16:40.195Z,25.55
2018-11-01T20:19:08.378Z,24.70
2018-11-01T20:21:36.392Z,21.75
2018-11-01T20:24:04.340Z,20.55
2018-11-01T20:26:32.371Z,19.30
2018-11-01T20:29:00.404Z,17.60
2018-11-01T20:31:28.433Z,17.10
2018-11-01T20:33:56.485Z,18.23
2018-11-01T20:36:24.542Z,18.57
2018-11-01T20:38:52.567Z,17.37
2018-11-01T20:41:20.596Z,17.10
2018-11-01T20:43:48.869Z,17.20
2018-11-01T20:46:16.939Z,17.50
2018-11-01T20:48:44.979Z,17.45
2018-11-01T20:51:13.013Z,17.10
2018-11-01T20:53:41.672Z,17.55
2018-11-01T20:56:09.721Z,18.00
2018-11-01T20:58:37.753Z,17.55
2018-11-01T21:01:05.772Z,18.25
2018-11-01T21:03:33.839Z,18.70
2018-11-01T21:06:01.846Z,18.13
2018-11-01T21:08:29.881Z,18.55
2018-11-01T21:10:57.974Z,18.70
2018-11-01T21:13:25.944Z,18.73
2018-11-01T21:15:53.984Z,20.00
2018-11-01T21:18:22.177Z,19.43
2018-11-01T21:20:50.349Z,19.48
2018-11-01T21:23:18.381Z,20.23
2018-11-01T21:25:46.404Z,19.37
2018-11-01T21:28:14.427Z,20.00
2018-11-01T21:30:42.439Z,20.00
2018-11-01T21:33:10.476Z,21.80
2018-11-01T21:35:38.604Z,21.60
2018-11-01T21:38:06.513Z,21.23
2018-11-01T21:40:34.565Z,21.57
2018-11-01T21:43:02.589Z,21.80
2018-11-01T21:45:30.637Z,22.65
2018-11-01T21:47:58.668Z,22.80
2018-11-01T21:50:26.691Z,21.33
2018-11-01T21:52:54.733Z,22.82
2018-11-01T21:55:22.766Z,21.95
2018-11-01T21:57:50.819Z,24.10
2018-11-01T22:00:18.844Z,24.10
2018-11-01T22:02:46.885Z,23.73
2018-11-01T22:05:14.913Z,25.32
2018-11-01T22:07:42.957Z,25.10
2018-11-01T22:10:11.340Z,25.48
2018-11-01T22:12:39.379Z,25.37
2018-11-01T22:15:09.013Z,27.60
2018-11-01T22:17:37.068Z,26.68
2018-11-01T22:20:05.976Z,26.20
2018-11-01T22:22:34.015Z,26.42
2018-11-01T22:25:02.092Z,25.60
2018-11-01T22:27:30.125Z,25.52
2018-11-01T22:29:58.277Z,25.95
2018-11-01T22:32:26.325Z,26.27
2018-11-01T22:34:54.377Z,26.45
2018-11-01T22:37:22.424Z,27.10
2018-11-01T22:39:50.449Z,26.68
2018-11-01T22:42:18.488Z,27.65
2018-11-01T22:44:46.529Z,27.67
2018-11-01T22:47:14.552Z,27.85
2018-11-01T22:49:42.572Z,29.10
2018-11-01T22:52:10.617Z,30.00
2018-11-01T22:54:38.684Z,30.90
2018-11-01T22:57:06.744Z,31.10
2018-11-01T22:59:34.870Z,31.00
2018-11-01T23:02:02.816Z,31.97
2018-11-01T23:04:30.840Z,32.30
2018-11-01T23:06:58.913Z,33.50
2018-11-01T23:09:26.927Z,34.33
2018-11-01T23:11:54.950Z,35.95
2018-11-01T23:14:22.996Z,34.70
2018-11-01T23:16:51.021Z,35.40
2018-11-01T23:19:19.049Z,36.03
2018-11-01T23:21:47.160Z,37.88
2018-11-01T23:24:15.325Z,37.55
2018-11-01T23:26:43.343Z,37.33
2018-11-01T23:29:11.421Z,37.23
2018-11-01T23:31:39.497Z,38.75
2018-11-01T23:34:07.525Z,37.23
2018-11-01T23:36:41.161Z,38.25
2018-11-01T23:39:14.708Z,38.53
2018-11-01T23:41:48.500Z,38.85
2018-11-01T23:44:22.273Z,39.48
2018-11-01T23:46:55.933Z,40.58
2018-11-01T23:49:33.172Z,40.55
2018-11-01T23:52:03.436Z,40.48
2018-11-01T23:54:31.452Z,39.90
2018-11-01T23:56:59.472Z,40.17
2018-11-01T23:59:27.528Z,39.10
